Time;durP1;ratioP1;P1;durP2;ratioP2;P2;SDS_P1;SDS_P2;PMS_P1;PMS_P2;Temp;Humidity;BMP_temperature;BMP_pressure;BME280_temperature;BME280_humidity;BME280_pressure;Samples;Min_cycle;Max_cycle;Signal;HPM_P1;HPM_P2
2023/12/02 00:00:08;;;;;;;53.53;34.97;;;3.00;99.90;;;;;;5012212;28;20037;-68
2023/12/02 00:02:34;;;;;;;60.17;43.13;;;3.10;99.90;;;;;;5012130;28;20041;-68
2023/12/02 00:05:01;;;;;;;51.87;36.93;;;3.10;99.90;;;;;;5011858;28;20037;-69
2023/12/02 00:07:27;;;;;;;50.93;39.60;;;2.90;99.90;;;;;;5011764;28;20033;-69
2023/12/02 00:09:53;;;;;;;51.27;36.07;;;2.80;99.90;;;;;;5012554;28;20037;-69
2023/12/02 00:12:19;;;;;;;52.83;36.40;;;2.80;99.90;;;;;;5011839;28;20042;-68
2023/12/02 00:14:45;;;;;;;51.10;35.97;;;2.70;99.90;;;;;;5012461;28;20041;-68
2023/12/02 00:17:11;;;;;;;54.23;35.27;;;2.60;99.90;;;;;;5011992;28;20037;-69
2023/12/02 00:19:37;;;;;;;47.03;33.57;;;2.60;99.90;;;;;;5011858;28;20064;-68
2023/12/02 00:22:05;;;;;;;50.87;35.50;;;2.70;99.90;;;;;;5012186;28;20033;-68
2023/12/02 00:24:31;;;;;;;52.67;35.67;;;2.60;99.90;;;;;;5012810;28;20057;-68
2023/12/02 00:26:57;;;;;;;54.63;35.83;;;2.50;99.90;;;;;;5011522;28;20038;-69
2023/12/02 00:29:24;;;;;;;57.10;39.73;;;2.40;99.90;;;;;;5012464;28;20493;-68
2023/12/02 00:31:50;;;;;;;54.17;37.50;;;2.30;99.90;;;;;;5011543;28;20041;-68
2023/12/02 00:34:16;;;;;;;55.07;36.87;;;2.20;99.90;;;;;;5011479;28;20037;-68
2023/12/02 00:36:46;;;;;;;48.43;34.33;;;2.20;99.90;;;;;;5026844;28;20049;-69
2023/12/02 00:39:12;;;;;;;50.70;35.00;;;2.10;99.90;;;;;;5010402;28;20060;-69
2023/12/02 00:41:38;;;;;;;51.20;35.97;;;2.10;99.90;;;;;;5012036;28;20038;-70
2023/12/02 00:44:04;;;;;;;46.80;36.53;;;2.10;99.90;;;;;;5010471;28;20030;-70
2023/12/02 00:46:30;;;;;;;50.77;35.47;;;2.00;99.90;;;;;;5026489;28;20060;-71
2023/12/02 00:48:56;;;;;;;50.97;38.10;;;1.90;99.90;;;;;;5011755;28;20026;-70
2023/12/02 00:51:23;;;;;;;47.97;37.30;;;1.80;99.90;;;;;;5010157;28;20394;-70
2023/12/02 00:53:49;;;;;;;50.83;38.63;;;2.10;99.90;;;;;;5012062;28;20049;-70
2023/12/02 00:56:16;;;;;;;49.80;36.23;;;2.20;99.90;;;;;;5010167;28;20045;-70
2023/12/02 00:58:42;;;;;;;51.07;37.97;;;2.30;99.90;;;;;;5010887;28;20390;-70
2023/12/02 01:01:09;;;;;;;53.23;40.17;;;2.30;99.90;;;;;;5011059;28;20503;-70
2023/12/02 01:03:35;;;;;;;51.10;39.83;;;2.30;99.90;;;;;;5011533;28;20041;-70
2023/12/02 01:06:01;;;;;;;51.37;35.70;;;2.10;99.90;;;;;;5026506;28;20382;-70
2023/12/02 01:08:27;;;;;;;49.67;36.47;;;2.10;99.90;;;;;;5010469;28;20045;-71
2023/12/02 01:10:53;;;;;;;52.63;39.73;;;2.00;99.90;;;;;;5011412;28;20057;-70
2023/12/02 01:13:19;;;;;;;51.33;37.57;;;2.00;99.90;;;;;;5026659;28;20038;-70
2023/12/02 01:15:45;;;;;;;52.97;36.20;;;2.00;99.90;;;;;;5010617;28;20034;-70
2023/12/02 01:18:11;;;;;;;48.60;36.37;;;1.90;99.90;;;;;;5011431;28;20498;-70
2023/12/02 01:20:38;;;;;;;50.27;34.87;;;1.80;99.90;;;;;;5010313;28;20030;-70
2023/12/02 01:23:04;;;;;;;56.33;37.93;;;1.70;99.90;;;;;;5011983;28;20438;-71
2023/12/02 01:25:30;;;;;;;48.77;31.57;;;1.60;99.90;;;;;;5011094;28;20037;-70
2023/12/02 01:27:56;;;;;;;50.83;32.23;;;1.60;99.90;;;;;;5011508;28;20033;-70
2023/12/02 01:30:22;;;;;;;48.60;34.17;;;1.60;99.90;;;;;;5013832;28;21117;-70
2023/12/02 01:32:48;;;;;;;47.47;35.10;;;1.60;99.90;;;;;;5046373;28;20052;-70
2023/12/02 01:35:15;;;;;;;49.20;30.93;;;1.60;99.90;;;;;;5030469;28;20037;-71
2023/12/02 01:37:41;;;;;;;50.13;31.70;;;1.70;99.90;;;;;;5046790;28;20029;-70
2023/12/02 01:40:07;;;;;;;45.57;31.67;;;1.70;99.90;;;;;;5046191;28;20383;-70
2023/12/02 01:42:33;;;;;;;46.00;31.37;;;1.60;99.90;;;;;;5046210;28;20422;-70
2023/12/02 01:45:00;;;;;;;53.40;37.23;;;1.70;99.90;;;;;;5030935;28;20040;-70
2023/12/02 01:47:26;;;;;;;50.30;34.97;;;1.60;99.90;;;;;;5029793;28;20026;-70
2023/12/02 01:49:52;;;;;;;47.80;30.27;;;1.50;99.90;;;;;;5046740;28;20056;-68
2023/12/02 01:52:18;;;;;;;49.13;32.63;;;1.60;99.90;;;;;;5046015;28;20402;-68
2023/12/02 01:54:44;;;;;;;42.07;34.93;;;1.60;99.90;;;;;;5046250;28;20033;-68
2023/12/02 01:57:10;;;;;;;47.77;35.17;;;1.70;99.90;;;;;;5032722;28;20038;-69
2023/12/02 01:59:39;;;;;;;46.43;30.97;;;1.60;99.90;;;;;;5049767;28;20034;-68
2023/12/02 02:02:06;;;;;;;49.63;37.47;;;1.70;99.90;;;;;;5032317;28;20155;-68
2023/12/02 02:04:32;;;;;;;41.47;28.93;;;1.70;99.90;;;;;;5034875;28;20498;-68
2023/12/02 02:06:58;;;;;;;45.13;33.30;;;1.70;99.90;;;;;;5033802;28;20034;-68
2023/12/02 02:09:24;;;;;;;49.17;36.00;;;1.60;99.90;;;;;;5049792;28;20033;-68
2023/12/02 02:11:50;;;;;;;42.83;28.73;;;1.50;99.90;;;;;;5034498;28;20049;-68
2023/12/02 02:14:16;;;;;;;44.27;32.27;;;1.50;99.90;;;;;;5034016;28;20052;-68
2023/12/02 02:16:42;;;;;;;47.07;34.37;;;1.60;99.90;;;;;;5032948;28;20060;-68
2023/12/02 02:19:08;;;;;;;52.73;36.40;;;1.80;99.90;;;;;;5034120;28;20053;-68
2023/12/02 02:21:34;;;;;;;43.07;32.90;;;1.80;99.90;;;;;;5049398;28;20485;-68
2023/12/02 02:24:01;;;;;;;44.83;34.73;;;1.70;99.90;;;;;;5034070;28;20033;-68
2023/12/02 02:26:27;;;;;;;42.77;33.40;;;1.70;99.90;;;;;;5033351;28;20033;-68
2023/12/02 02:28:53;;;;;;;40.00;32.13;;;1.70;99.90;;;;;;5033775;28;20385;-68
2023/12/02 02:31:19;;;;;;;41.97;33.03;;;1.60;99.90;;;;;;5022688;28;20038;-68
2023/12/02 02:33:45;;;;;;;46.27;34.67;;;1.50;99.90;;;;;;5013999;28;20486;-68
2023/12/02 02:36:11;;;;;;;46.77;36.57;;;1.60;99.90;;;;;;5013799;28;20034;-69
2023/12/02 02:38:37;;;;;;;46.70;34.50;;;1.70;99.90;;;;;;5014147;28;20045;-68
2023/12/02 02:41:04;;;;;;;44.27;33.17;;;1.80;99.90;;;;;;5013677;28;20030;-68
2023/12/02 02:43:30;;;;;;;48.50;36.90;;;1.90;99.90;;;;;;5014260;28;20485;-69
2023/12/02 02:45:56;;;;;;;44.00;31.53;;;1.90;99.90;;;;;;5012373;28;20513;-68
2023/12/02 02:48:22;;;;;;;45.00;33.00;;;1.90;99.90;;;;;;5029093;28;20044;-68
2023/12/02 02:50:48;;;;;;;41.93;29.10;;;1.90;99.90;;;;;;5014166;28;20038;-68
2023/12/02 02:53:15;;;;;;;44.10;29.20;;;1.70;99.90;;;;;;5013399;28;20080;-68
2023/12/02 02:55:41;;;;;;;43.30;34.20;;;1.70;99.90;;;;;;5013082;28;20030;-68
2023/12/02 02:58:07;;;;;;;46.83;36.20;;;1.70;99.90;;;;;;5014179;28;20387;-68
2023/12/02 03:00:33;;;;;;;37.83;28.10;;;1.80;99.90;;;;;;5013147;28;20042;-68
2023/12/02 03:02:59;;;;;;;47.63;30.33;;;1.80;99.90;;;;;;5028938;28;20105;-68
2023/12/02 03:05:25;;;;;;;32.83;26.10;;;1.60;99.90;;;;;;5012740;28;20041;-68
2023/12/02 03:07:51;;;;;;;45.17;36.83;;;1.60;99.90;;;;;;5013716;28;20046;-70
2023/12/02 03:10:17;;;;;;;47.87;38.47;;;1.60;99.90;;;;;;5028192;28;20034;-70
2023/12/02 03:12:43;;;;;;;33.30;25.90;;;1.70;99.90;;;;;;5028565;28;20037;-71
2023/12/02 03:15:09;;;;;;;50.27;40.80;;;1.80;99.90;;;;;;5027243;28;20042;-70
2023/12/02 03:17:35;;;;;;;44.17;35.40;;;1.70;99.90;;;;;;5028567;28;20022;-70
2023/12/02 03:20:02;;;;;;;40.43;31.90;;;1.70;99.90;;;;;;5013263;28;20376;-70
2023/12/02 03:22:28;;;;;;;43.77;34.03;;;1.60;99.90;;;;;;5012563;28;20611;-70
2023/12/02 03:24:55;;;;;;;36.90;29.37;;;1.60;99.90;;;;;;5013104;28;20038;-69
2023/12/02 03:27:21;;;;;;;32.87;25.83;;;1.70;99.90;;;;;;5012999;28;20025;-70
2023/12/02 03:29:47;;;;;;;39.40;28.37;;;1.60;99.90;;;;;;5028347;28;20029;-70
2023/12/02 03:32:13;;;;;;;44.87;32.33;;;1.60;99.90;;;;;;5012283;28;20026;-70
2023/12/02 03:34:39;;;;;;;44.73;31.30;;;1.60;99.90;;;;;;5028275;28;20037;-70
2023/12/02 03:37:06;;;;;;;46.07;34.37;;;1.70;99.90;;;;;;5012485;28;20494;-70
2023/12/02 03:39:32;;;;;;;41.50;34.50;;;1.80;99.90;;;;;;5012098;28;20034;-70
2023/12/02 03:41:58;;;;;;;46.03;32.33;;;1.80;99.90;;;;;;5012804;28;20041;-70
2023/12/02 03:44:24;;;;;;;40.27;29.73;;;1.70;99.90;;;;;;5012278;28;20471;-70
2023/12/02 03:46:50;;;;;;;40.93;29.87;;;1.70;99.90;;;;;;5012248;28;20041;-70
2023/12/02 03:49:16;;;;;;;40.93;27.73;;;1.60;99.90;;;;;;5013079;28;20553;-70
2023/12/02 03:51:42;;;;;;;42.53;32.43;;;1.70;99.90;;;;;;5027406;28;20029;-70
2023/12/02 03:54:08;;;;;;;42.93;34.10;;;1.90;99.90;;;;;;5012717;28;20045;-72
2023/12/02 03:56:34;;;;;;;41.43;33.50;;;2.10;99.90;;;;;;5027026;28;20041;-71
2023/12/02 03:59:00;;;;;;;39.70;28.30;;;2.10;99.90;;;;;;5011714;28;20030;-70
2023/12/02 04:01:26;;;;;;;39.57;27.63;;;2.00;99.90;;;;;;5011838;28;20378;-70
2023/12/02 04:03:52;;;;;;;36.17;26.90;;;1.90;99.90;;;;;;5012363;28;20045;-70
2023/12/02 04:06:18;;;;;;;38.43;27.43;;;1.80;99.90;;;;;;5027231;28;20390;-70
2023/12/02 04:08:45;;;;;;;40.20;29.77;;;1.80;99.90;;;;;;5027894;28;20033;-70
2023/12/02 04:11:11;;;;;;;41.93;29.57;;;2.00;99.90;;;;;;5011584;28;20037;-70
2023/12/02 04:13:37;;;;;;;42.27;31.70;;;2.10;99.90;;;;;;5011844;28;20101;-70
2023/12/02 04:16:03;;;;;;;45.00;32.03;;;2.20;99.90;;;;;;5018864;28;20034;-70
2023/12/02 04:18:29;;;;;;;42.13;29.53;;;2.30;99.90;;;;;;5031272;28;20045;-70
2023/12/02 04:20:55;;;;;;;45.10;30.03;;;2.40;99.90;;;;;;5046889;28;20033;-70
2023/12/02 04:23:21;;;;;;;42.57;29.97;;;2.40;99.90;;;;;;5032109;28;20037;-70
2023/12/02 04:25:47;;;;;;;41.80;30.83;;;2.30;99.90;;;;;;5031090;28;20029;-70
2023/12/02 04:28:14;;;;;;;41.80;28.00;;;2.50;99.90;;;;;;5030889;28;20049;-70
2023/12/02 04:30:40;;;;;;;39.87;27.97;;;2.50;99.90;;;;;;5026442;28;20030;-71
2023/12/02 04:33:06;;;;;;;42.77;30.23;;;2.40;99.90;;;;;;5013712;28;20049;-69
2023/12/02 04:35:34;;;;;;;40.57;30.97;;;2.30;99.90;;;;;;5011556;28;20041;-69
2023/12/02 04:38:00;;;;;;;44.43;30.97;;;2.40;99.90;;;;;;5012163;28;20036;-68
2023/12/02 04:40:26;;;;;;;42.07;32.33;;;2.50;99.90;;;;;;5011749;28;20033;-69
2023/12/02 04:42:52;;;;;;;40.20;30.33;;;2.50;99.90;;;;;;5011874;28;20029;-68
2023/12/02 04:45:18;;;;;;;41.07;28.73;;;2.50;99.90;;;;;;5011321;28;20049;-69
2023/12/02 04:47:44;;;;;;;41.57;28.10;;;2.40;99.90;;;;;;5012115;28;20395;-68
2023/12/02 04:50:10;;;;;;;41.13;29.10;;;2.20;99.90;;;;;;5011910;28;20387;-68
2023/12/02 04:52:36;;;;;;;41.67;32.03;;;2.10;99.90;;;;;;5011653;28;20041;-69
2023/12/02 04:55:03;;;;;;;43.63;30.77;;;2.10;99.90;;;;;;5011252;28;20502;-68
2023/12/02 04:57:29;;;;;;;45.70;32.70;;;2.00;99.90;;;;;;5011516;28;20516;-69
2023/12/02 04:59:55;;;;;;;43.40;29.93;;;2.00;99.90;;;;;;5011955;28;20040;-69
2023/12/02 05:02:21;;;;;;;43.40;29.93;;;2.00;99.90;;;;;;5011276;28;20042;-68
2023/12/02 05:04:48;;;;;;;41.80;30.03;;;2.00;99.90;;;;;;5011808;28;20422;-68
2023/12/02 05:07:14;;;;;;;39.47;30.03;;;2.00;99.90;;;;;;5011770;28;20756;-69
2023/12/02 05:09:40;;;;;;;40.73;29.93;;;2.10;99.90;;;;;;5011885;28;20046;-68
2023/12/02 05:12:07;;;;;;;42.63;30.70;;;2.10;99.90;;;;;;5011830;28;20475;-68
2023/12/02 05:14:34;;;;;;;43.63;30.03;;;2.00;99.90;;;;;;5011495;28;20525;-69
2023/12/02 05:17:00;;;;;;;42.57;31.63;;;2.10;99.90;;;;;;5011019;28;20415;-68
2023/12/02 05:19:26;;;;;;;42.20;29.37;;;2.10;99.90;;;;;;5012101;28;20060;-68
2023/12/02 05:21:52;;;;;;;42.60;27.83;;;2.20;99.90;;;;;;5011667;28;20578;-68
2023/12/02 05:24:18;;;;;;;43.73;31.80;;;2.10;99.90;;;;;;5011186;28;20041;-69
2023/12/02 05:26:45;;;;;;;45.30;33.07;;;2.10;99.90;;;;;;5011380;28;20049;-68
2023/12/02 05:29:11;;;;;;;44.27;33.07;;;2.10;99.90;;;;;;5027099;28;20052;-68
2023/12/02 05:31:38;;;;;;;44.60;31.97;;;2.20;99.90;;;;;;5029680;28;20034;-68
2023/12/02 05:34:04;;;;;;;49.37;35.27;;;2.30;99.90;;;;;;5014385;28;20046;-68
2023/12/02 05:36:31;;;;;;;58.70;38.93;;;2.40;99.90;;;;;;5014572;28;20030;-68
2023/12/02 05:38:57;;;;;;;54.17;34.17;;;2.50;99.90;;;;;;5014949;28;20519;-69
2023/12/02 05:41:23;;;;;;;41.80;31.93;;;2.40;99.90;;;;;;5015128;28;20038;-68
2023/12/02 05:43:49;;;;;;;46.67;33.87;;;2.20;99.90;;;;;;5015263;28;20033;-70
2023/12/02 05:46:16;;;;;;;40.13;27.60;;;2.30;99.90;;;;;;5014599;28;20045;-70
2023/12/02 05:48:43;;;;;;;39.47;29.87;;;2.10;99.90;;;;;;5030536;28;20026;-71
2023/12/02 05:51:12;;;;;;;42.93;30.57;;;2.10;99.90;;;;;;5013577;28;20033;-71
2023/12/02 05:53:39;;;;;;;46.60;32.97;;;2.20;99.90;;;;;;5011641;28;20406;-70
2023/12/02 05:56:05;;;;;;;42.53;29.67;;;2.30;99.90;;;;;;5014839;28;20038;-70
2023/12/02 05:58:31;;;;;;;43.20;33.60;;;2.30;99.90;;;;;;5030406;28;20038;-70
2023/12/02 06:00:57;;;;;;;45.57;32.27;;;2.30;99.90;;;;;;5022044;28;20398;-70
2023/12/02 06:03:24;;;;;;;41.80;31.83;;;2.20;99.90;;;;;;5033451;28;20036;-70
2023/12/02 06:05:50;;;;;;;45.60;30.03;;;2.20;99.90;;;;;;5034335;28;20490;-70
2023/12/02 06:08:16;;;;;;;44.30;31.90;;;2.30;99.90;;;;;;5032026;28;20037;-70
2023/12/02 06:10:42;;;;;;;44.53;31.23;;;2.20;99.90;;;;;;5033788;28;20029;-71
2023/12/02 06:13:08;;;;;;;48.03;34.53;;;2.30;99.90;;;;;;5034424;28;20030;-71
2023/12/02 06:15:34;;;;;;;45.93;32.97;;;2.40;99.90;;;;;;5029563;28;20045;-71
2023/12/02 06:18:00;;;;;;;38.40;28.00;;;2.50;99.90;;;;;;5014246;28;20390;-81
2023/12/02 06:20:26;;;;;;;50.30;36.33;;;2.30;99.90;;;;;;5014267;28;20042;-71
2023/12/02 06:22:53;;;;;;;44.03;34.87;;;3.10;99.90;;;;;;5013910;28;20044;-70
2023/12/02 06:25:19;;;;;;;40.60;31.47;;;2.90;99.90;;;;;;5014369;28;20041;-71
2023/12/02 06:27:45;;;;;;;41.27;28.63;;;2.70;99.90;;;;;;5029681;28;20046;-70
2023/12/02 06:30:15;;;;;;;43.50;30.80;;;2.50;99.90;;;;;;5029467;28;20030;-70
2023/12/02 06:32:42;;;;;;;44.20;31.67;;;2.40;99.90;;;;;;5014166;28;20045;-71
2023/12/02 06:35:08;;;;;;;42.53;30.43;;;2.30;99.90;;;;;;5014267;28;20053;-71
2023/12/02 06:37:35;;;;;;;46.17;34.33;;;2.40;99.90;;;;;;4994862;28;20049;-71
2023/12/02 06:40:01;;;;;;;45.40;30.07;;;2.40;99.90;;;;;;4993717;28;20061;-71
2023/12/02 06:42:27;;;;;;;43.80;32.47;;;2.30;99.90;;;;;;5010981;28;20049;-71
2023/12/02 06:44:53;;;;;;;42.50;31.53;;;2.40;99.90;;;;;;5012809;28;20038;-70
2023/12/02 06:47:19;;;;;;;41.83;31.43;;;2.50;99.90;;;;;;5032219;28;20053;-68
2023/12/02 06:49:45;;;;;;;45.40;33.70;;;2.50;99.90;;;;;;5034359;28;20386;-68
2023/12/02 06:52:12;;;;;;;43.20;33.83;;;2.60;99.90;;;;;;5033475;28;20056;-69
2023/12/02 06:54:38;;;;;;;43.50;32.07;;;2.50;99.90;;;;;;5033921;28;20033;-68
2023/12/02 06:57:05;;;;;;;49.73;37.43;;;2.60;99.90;;;;;;5033762;28;20104;-71
2023/12/02 06:59:31;;;;;;;48.67;35.60;;;2.50;99.90;;;;;;5032974;28;20026;-70
2023/12/02 07:01:57;;;;;;;66.10;48.53;;;2.60;99.90;;;;;;5032952;28;20053;-69
2023/12/02 07:04:23;;;;;;;50.43;35.90;;;2.70;99.90;;;;;;5033803;28;20036;-68
2023/12/02 07:06:49;;;;;;;44.90;30.20;;;2.60;99.90;;;;;;5033314;28;20037;-68
2023/12/02 07:09:15;;;;;;;61.40;37.33;;;2.50;99.90;;;;;;5033899;28;20048;-69
2023/12/02 07:11:41;;;;;;;37.50;28.13;;;2.40;99.90;;;;;;5033027;28;20709;-70
2023/12/02 07:14:08;;;;;;;36.80;25.20;;;2.50;99.90;;;;;;5033755;28;20057;-69
2023/12/02 07:16:34;;;;;;;36.03;29.30;;;2.30;99.90;;;;;;5033000;28;20030;-68
2023/12/02 07:19:00;;;;;;;32.50;26.73;;;2.30;99.90;;;;;;5029760;28;20042;-68
2023/12/02 07:21:26;;;;;;;34.40;27.53;;;2.40;99.90;;;;;;5030540;28;20044;-68
2023/12/02 07:23:52;;;;;;;32.77;26.37;;;2.30;99.90;;;;;;5017839;28;20069;-68
2023/12/02 07:26:18;;;;;;;30.13;24.37;;;2.30;99.90;;;;;;5012594;28;20026;-68
2023/12/02 07:28:44;;;;;;;30.67;26.13;;;2.30;99.90;;;;;;5003777;28;20380;-68
2023/12/02 07:31:16;;;;;;;28.47;22.97;;;2.20;99.90;;;;;;5017795;28;20033;-68
2023/12/02 07:33:42;;;;;;;27.43;24.30;;;2.20;99.90;;;;;;5031426;28;20125;-69
2023/12/02 07:36:09;;;;;;;36.10;31.07;;;2.10;99.90;;;;;;5049126;28;20033;-69
2023/12/02 07:38:35;;;;;;;36.27;32.57;;;2.00;99.90;;;;;;5034846;28;20040;-69
2023/12/02 07:41:01;;;;;;;30.87;25.23;;;2.10;99.90;;;;;;5039951;28;20033;-69
2023/12/02 07:43:28;;;;;;;32.07;23.40;;;2.10;99.90;;;;;;5047890;28;20478;-68
2023/12/02 07:45:54;;;;;;;30.07;25.87;;;2.20;99.90;;;;;;5032371;28;20045;-69
2023/12/02 07:48:20;;;;;;;30.33;25.93;;;2.20;99.90;;;;;;5017100;28;20026;-69
2023/12/02 07:50:46;;;;;;;34.53;28.53;;;2.10;99.90;;;;;;5013109;28;20061;-68
2023/12/02 07:53:12;;;;;;;35.53;31.97;;;2.00;99.90;;;;;;5024499;28;20037;-68
2023/12/02 07:55:38;;;;;;;34.73;24.37;;;1.90;99.90;;;;;;5032777;28;20037;-68
2023/12/02 07:58:04;;;;;;;33.50;25.20;;;1.90;99.90;;;;;;5033083;28;20383;-69
2023/12/02 08:00:30;;;;;;;30.80;23.97;;;2.00;99.90;;;;;;5032483;28;20041;-69
2023/12/02 08:02:56;;;;;;;29.90;25.10;;;2.10;99.90;;;;;;5032464;28;20478;-69
2023/12/02 08:05:22;;;;;;;32.27;28.77;;;2.00;99.90;;;;;;5016335;28;20050;-71
2023/12/02 08:07:49;;;;;;;29.57;26.43;;;1.90;99.90;;;;;;5028198;28;20458;-71
2023/12/02 08:10:15;;;;;;;34.23;30.47;;;2.00;99.90;;;;;;5012969;28;20030;-70
2023/12/02 08:12:42;;;;;;;35.57;31.90;;;1.90;99.90;;;;;;5020065;28;20025;-71
2023/12/02 08:15:08;;;;;;;28.57;24.07;;;1.90;99.90;;;;;;5030101;28;20056;-70
2023/12/02 08:17:35;;;;;;;31.73;27.97;;;1.90;99.90;;;;;;5047031;28;20034;-70
2023/12/02 08:20:05;;;;;;;33.13;29.70;;;1.90;99.90;;;;;;5031325;28;20053;-71
2023/12/02 08:22:32;;;;;;;36.60;32.87;;;2.00;99.90;;;;;;5019013;28;20045;-71
2023/12/02 08:24:58;;;;;;;29.17;26.07;;;2.00;99.90;;;;;;5031061;28;20048;-71
2023/12/02 08:27:25;;;;;;;31.03;27.73;;;1.90;99.90;;;;;;5030912;28;20064;-71
2023/12/02 08:29:51;;;;;;;31.20;28.03;;;1.80;99.90;;;;;;5032019;28;20048;-71
2023/12/02 08:32:17;;;;;;;35.73;26.67;;;1.80;99.90;;;;;;5030477;28;20056;-71
2023/12/02 08:34:43;;;;;;;31.60;27.57;;;2.00;99.90;;;;;;5031805;28;20049;-71
2023/12/02 08:37:09;;;;;;;27.80;23.70;;;2.20;99.90;;;;;;5047285;28;20466;-71
2023/12/02 08:39:35;;;;;;;29.87;26.57;;;2.10;99.90;;;;;;5029908;28;20041;-71
2023/12/02 08:42:01;;;;;;;31.87;28.00;;;2.20;99.90;;;;;;5027108;28;20497;-71
2023/12/02 08:44:27;;;;;;;31.93;26.53;;;2.40;99.90;;;;;;5031935;28;20045;-71
2023/12/02 08:46:54;;;;;;;29.13;24.53;;;2.50;99.90;;;;;;5029531;28;20042;-70
2023/12/02 08:49:20;;;;;;;31.67;26.40;;;2.50;99.90;;;;;;5047474;28;20040;-71
2023/12/02 08:51:46;;;;;;;32.67;27.63;;;2.50;99.90;;;;;;5046307;28;20037;-71
2023/12/02 08:54:13;;;;;;;32.37;27.60;;;2.40;99.90;;;;;;5031388;28;20048;-70
2023/12/02 08:56:39;;;;;;;31.63;28.27;;;2.40;99.90;;;;;;5024005;28;20409;-71
2023/12/02 08:59:05;;;;;;;34.73;29.83;;;2.40;99.90;;;;;;5010254;28;20045;-71
2023/12/02 09:01:31;;;;;;;32.47;29.00;;;2.30;99.90;;;;;;5021771;28;20041;-71
2023/12/02 09:03:57;;;;;;;35.23;29.37;;;2.30;99.90;;;;;;5046907;28;20045;-71
2023/12/02 09:06:23;;;;;;;33.40;29.67;;;2.40;99.90;;;;;;5034952;28;20495;-71
2023/12/02 09:08:49;;;;;;;31.97;27.47;;;2.40;99.90;;;;;;5049750;28;20029;-70
2023/12/02 09:11:15;;;;;;;32.30;28.83;;;2.50;99.90;;;;;;5050413;28;20509;-71
2023/12/02 09:13:48;;;;;;;33.53;26.50;;;2.50;99.90;;;;;;5029821;28;20053;-70
2023/12/02 09:16:25;;;;;;;33.90;25.87;;;2.50;99.90;;;;;;5025055;28;20510;-69
2023/12/02 09:18:51;;;;;;;30.60;25.60;;;2.70;99.90;;;;;;5016133;28;20372;-69
2023/12/02 09:21:36;;;;;;;30.30;27.20;;;2.60;99.90;;;;;;5030682;28;20046;-69
2023/12/02 09:24:04;;;;;;;28.40;24.83;;;2.50;99.90;;;;;;5030846;28;20040;-69
2023/12/02 09:26:35;;;;;;;31.40;24.90;;;2.40;99.90;;;;;;5015332;28;20086;-69
2023/12/02 09:29:01;;;;;;;27.98;21.90;;;2.50;99.90;;;;;;5031237;28;20026;-69
2023/12/02 09:31:27;;;;;;;26.87;22.47;;;2.50;99.90;;;;;;5030215;28;20050;-69
2023/12/02 09:34:00;;;;;;;26.77;23.93;;;2.40;99.90;;;;;;5013626;28;20045;-69
2023/12/02 09:36:32;;;;;;;26.33;23.17;;;2.40;99.90;;;;;;5014186;28;20525;-69
2023/12/02 09:39:03;;;;;;;30.93;24.73;;;2.40;99.90;;;;;;5015127;28;20033;-69
2023/12/02 09:41:33;;;;;;;26.00;23.30;;;2.50;99.90;;;;;;5014130;28;20049;-69
2023/12/02 09:44:17;;;;;;;28.10;24.00;;;2.40;99.90;;;;;;5013859;28;20061;-69
2023/12/02 09:46:58;;;;;;;31.47;24.57;;;2.50;99.90;;;;;;5013232;28;20045;-69
2023/12/02 09:50:05;;;;;;;29.35;23.77;;;2.60;99.90;;;;;;5005067;28;20034;-69
2023/12/02 09:52:47;;;;;;;31.17;24.27;;;2.60;99.90;;;;;;5030177;28;20026;-69
2023/12/02 09:55:19;;;;;;;29.43;24.00;;;2.70;99.90;;;;;;5014922;28;20052;-67
2023/12/02 09:58:09;;;;;;;30.87;27.10;;;2.70;99.90;;;;;;5030230;28;20030;-68
2023/12/02 10:00:38;;;;;;;32.27;25.53;;;2.90;99.90;;;;;;4998088;28;20041;-69
2023/12/02 10:03:20;;;;;;;28.10;25.00;;;3.00;99.90;;;;;;5015208;28;20056;-68
2023/12/02 10:06:04;;;;;;;26.60;24.10;;;2.90;99.90;;;;;;5014614;28;20379;-68
2023/12/02 10:08:45;;;;;;;30.57;27.27;;;2.90;99.90;;;;;;5008556;28;20045;-69
2023/12/02 10:11:19;;;;;;;28.35;25.40;;;3.00;99.90;;;;;;5006167;28;20034;-69
2023/12/02 10:14:04;;;;;;;32.03;28.70;;;3.00;99.90;;;;;;5011600;28;20034;-68
2023/12/02 10:16:31;;;;;;;31.17;27.53;;;3.00;99.90;;;;;;4994164;28;20049;-69
2023/12/02 10:18:58;;;;;;;32.90;28.17;;;3.10;99.90;;;;;;4995848;28;20053;-69
2023/12/02 10:21:27;;;;;;;30.23;26.77;;;3.10;99.90;;;;;;5016154;28;20025;-69
2023/12/02 10:24:07;;;;;;;31.40;28.00;;;3.20;99.90;;;;;;5022429;28;20033;-69
2023/12/02 10:26:41;;;;;;;31.53;24.33;;;3.30;99.90;;;;;;5004423;28;20033;-69
2023/12/02 10:29:12;;;;;;;33.20;29.83;;;3.20;99.90;;;;;;5012798;28;20053;-69
2023/12/02 10:31:44;;;;;;;37.13;33.22;;;3.30;99.90;;;;;;5017919;28;20025;-69
2023/12/02 10:34:14;;;;;;;30.57;26.60;;;3.50;99.90;;;;;;5007614;28;20041;-69
2023/12/02 10:36:40;;;;;;;33.67;28.17;;;3.50;99.90;;;;;;5013009;28;20037;-69
2023/12/02 10:39:10;;;;;;;33.37;30.07;;;3.50;99.90;;;;;;5013521;28;20486;-69
2023/12/02 10:41:45;;;;;;;35.42;28.90;;;3.70;99.90;;;;;;5028760;28;20044;-73
2023/12/02 10:44:11;;;;;;;31.77;26.23;;;3.70;99.90;;;;;;5014134;28;20038;-73
2023/12/02 10:46:39;;;;;;;50.77;46.43;;;3.90;99.90;;;;;;5013590;28;20475;-73
2023/12/02 10:49:05;;;;;;;39.30;35.07;;;3.80;99.90;;;;;;5015701;28;20041;-73
2023/12/02 10:51:32;;;;;;;44.53;40.23;;;4.00;99.90;;;;;;5011703;28;20036;-73
2023/12/02 10:53:59;;;;;;;32.87;29.10;;;4.20;99.90;;;;;;5008882;28;20026;-73
2023/12/02 10:56:27;;;;;;;48.00;43.57;;;4.50;99.90;;;;;;5012395;28;20034;-74
2023/12/02 10:58:53;;;;;;;39.87;35.83;;;4.50;99.90;;;;;;5012750;28;20042;-71
2023/12/02 11:01:29;;;;;;;83.03;77.23;;;4.30;99.90;;;;;;5012204;28;20038;-74
2023/12/02 11:04:06;;;;;;;43.10;38.80;;;4.00;99.90;;;;;;5013062;28;20018;-74
2023/12/02 11:06:43;;;;;;;51.77;46.67;;;3.90;99.90;;;;;;5012258;28;20034;-73
2023/12/02 11:09:31;;;;;;;41.37;37.47;;;4.10;99.90;;;;;;5013153;28;20574;-74
2023/12/02 11:12:11;;;;;;;54.67;50.00;;;4.20;99.90;;;;;;5012120;28;20117;-74
2023/12/02 11:14:41;;;;;;;81.57;75.47;;;4.00;99.90;;;;;;5028459;28;20033;-74
2023/12/02 11:17:19;;;;;;;63.72;58.58;;;4.20;99.90;;;;;;5016896;28;20038;-74
2023/12/02 11:20:09;;;;;;;53.17;48.10;;;4.50;99.90;;;;;;5033660;28;20052;-74
2023/12/02 11:23:17;;;;;;;84.27;78.13;;;4.70;99.90;;;;;;5033432;28;20037;-74
2023/12/02 11:26:07;;;;;;;52.40;48.10;;;4.50;99.90;;;;;;5032736;28;20265;-74
2023/12/02 11:28:55;;;;;;;55.17;50.33;;;4.30;99.90;;;;;;5031599;28;20025;-74
2023/12/02 11:31:32;;;;;;;66.93;61.73;;;4.70;99.90;;;;;;5021394;28;20038;-74
2023/12/02 11:34:52;;;;;;;50.20;45.50;;;5.10;99.90;;;;;;5026938;28;20029;-74
2023/12/02 11:37:33;;;;;;;62.00;56.70;;;5.30;99.90;;;;;;5010972;28;20146;-73
2023/12/02 11:40:12;;;;;;;95.95;89.22;;;5.20;99.90;;;;;;4993714;28;20033;-74
2023/12/02 11:42:56;;;;;;;54.73;50.03;;;4.90;99.90;;;;;;4989933;28;20038;-74
2023/12/02 11:45:24;;;;;;;56.60;51.57;;;5.00;99.90;;;;;;4969181;28;20041;-70
2023/12/02 11:47:59;;;;;;;52.73;47.87;;;5.30;99.90;;;;;;5015535;28;20042;-70
2023/12/02 11:50:47;;;;;;;57.63;52.83;;;5.50;99.90;;;;;;5011956;28;20038;-70
2023/12/02 11:53:29;;;;;;;66.17;60.83;;;5.80;99.90;;;;;;4985129;28;20052;-69
2023/12/02 11:56:00;;;;;;;1999.90;999.90;;;6.10;99.90;;;;;;5010619;28;20084;-70
2023/12/02 11:58:41;;;;;;;1999.90;999.90;;;6.30;99.90;;;;;;5006627;28;20505;-70
2023/12/02 12:01:10;;;;;;;;;;;6.00;99.90;;;;;;5017652;28;20041;-70
2023/12/02 12:03:50;;;;;;;1999.90;999.90;;;6.00;99.90;;;;;;4993865;28;20491;-70
2023/12/02 12:06:42;;;;;;;1999.90;999.90;;;6.50;99.90;;;;;;5015783;28;20068;-70
2023/12/02 12:09:28;;;;;;;1999.90;999.90;;;6.50;99.90;;;;;;4998764;28;20587;-70
2023/12/02 12:11:54;;;;;;;1999.90;999.90;;;6.70;99.90;;;;;;5006110;28;20037;-71
2023/12/02 12:14:20;;;;;;;1999.90;999.90;;;6.90;99.90;;;;;;5010973;28;20034;-70
2023/12/02 12:16:46;;;;;;;1999.90;999.90;;;7.20;99.90;;;;;;5023994;28;20048;-70
2023/12/02 12:19:13;;;;;;;1999.90;999.90;;;7.30;99.90;;;;;;5007899;28;20044;-71
2023/12/02 12:21:39;;;;;;;1999.90;999.90;;;7.50;99.90;;;;;;5006854;28;20042;-70
2023/12/02 12:24:06;;;;;;;1999.90;999.90;;;7.10;99.90;;;;;;5004449;28;20039;-70
2023/12/02 12:26:32;;;;;;;1999.90;999.90;;;7.30;99.90;;;;;;5008302;28;20471;-70
2023/12/02 12:28:58;;;;;;;1999.90;999.90;;;7.10;99.90;;;;;;5004580;28;20049;-70
2023/12/02 12:31:27;;;;;;;1999.90;999.90;;;6.90;99.90;;;;;;5004614;28;20034;-70
2023/12/02 12:33:53;;;;;;;1999.90;999.90;;;6.70;99.90;;;;;;5006278;28;20502;-71
2023/12/02 12:36:29;;;;;;;1999.90;999.90;;;6.40;99.90;;;;;;5007516;28;20033;-71
2023/12/02 12:38:59;;;;;;;1999.90;999.90;;;6.30;99.90;;;;;;5008143;28;20040;-70
2023/12/02 12:41:25;;;;;;;1999.90;999.90;;;6.10;99.90;;;;;;5008303;28;20042;-71